^^
Lisbon, NH - Weather Station Historical Data
Daily Summary for September 12, 2021 Units:  English    Metric   Both
Daily Weekly Monthly Yearly
  High: Low: Average:
Temperature: 67.5 °F 51.1 °F 54 °F
Dew Point: 62 °F 51.1 °F 53.8 °F
Humidity: 100% 81% 99%
Wind Speed: 2mph 0mph 0.1mph
Wind Gust: 10mph - -
Wind- - SW
Pressure: 29.99 in 29.89 in -
Precipitation: 0.00 in    
 
 
Tabular Data for September 12, 2021
Time Temperature Dew Point Pressure Wind Wind Speed Wind Gust Humidity Rainfall Rate (Hourly) solar
00:04 54.2 °F 54.2 °F 29.98 in Calm     100% 0.00 in 0 W/m2
00:09 54.4 °F 54.4 °F 29.98 in Calm     100% 0.00 in 0 W/m2
00:14 54.2 °F 54.2 °F 29.98 in Calm     100% 0.00 in 0 W/m2
00:19 54.1 °F 54.1 °F 29.98 in Calm     100% 0.00 in 0 W/m2
00:24 54.1 °F 54.1 °F 29.98 in Calm     100% 0.00 in 0 W/m2
00:29 54.1 °F 54.1 °F 29.98 in Calm     100% 0.00 in 0 W/m2
00:34 54.1 °F 54.1 °F 29.98 in Calm     100% 0.00 in 0 W/m2
00:39 54.1 °F 54.1 °F 29.98 in Calm     100% 0.00 in 0 W/m2
00:44 54 °F 54 °F 29.99 in Calm     100% 0.00 in 0 W/m2
00:49 53.9 °F 53.9 °F 29.99 in Calm     100% 0.00 in 0 W/m2
00:54 53.9 °F 53.9 °F 29.99 in Calm     100% 0.00 in 0 W/m2
00:59 53.8 °F 53.8 °F 29.99 in Calm     100% 0.00 in 0 W/m2
01:04 53.8 °F 53.8 °F 29.99 in Calm     100% 0.00 in 0 W/m2
01:09 53.8 °F 53.8 °F 29.99 in Calm     100% 0.00 in 0 W/m2
01:14 53.8 °F 53.8 °F 29.99 in Calm     100% 0.00 in 0 W/m2
01:19 53.8 °F 53.8 °F 29.98 in Calm     100% 0.00 in 0 W/m2
01:24 53.6 °F 53.6 °F 29.98 in Calm     100% 0.00 in 0 W/m2
01:29 53.6 °F 53.6 °F 29.99 in Calm     100% 0.00 in 0 W/m2
01:34 53.5 °F 53.5 °F 29.99 in Calm     100% 0.00 in 0 W/m2
01:39 53.5 °F 53.5 °F 29.99 in Calm     100% 0.00 in 0 W/m2
01:44 53.4 °F 53.4 °F 29.99 in Calm     100% 0.00 in 0 W/m2
01:49 53.3 °F 53.3 °F 29.98 in Calm     100% 0.00 in 0 W/m2
01:54 53.2 °F 53.2 °F 29.98 in Calm     100% 0.00 in 0 W/m2
01:59 53.2 °F 53.2 °F 29.98 in Calm     100% 0.00 in 0 W/m2
02:04 53.1 °F 53.1 °F 29.98 in Calm     100% 0.00 in 0 W/m2
02:09 53.1 °F 53.1 °F 29.98 in Calm     100% 0.00 in 0 W/m2
02:14 53.1 °F 53.1 °F 29.98 in Calm     100% 0.00 in 0 W/m2
02:19 53 °F 53 °F 29.97 in Calm     100% 0.00 in 0 W/m2
02:24 52.8 °F 52.8 °F 29.97 in Calm     100% 0.00 in 0 W/m2
02:29 52.6 °F 52.6 °F 29.97 in Calm     100% 0.00 in 0 W/m2
02:34 52.4 °F 52.4 °F 29.97 in Calm     100% 0.00 in 0 W/m2
02:39 52.2 °F 52.2 °F 29.97 in Calm     100% 0.00 in 0 W/m2
02:44 52.2 °F 52.2 °F 29.97 in Calm     100% 0.00 in 0 W/m2
02:49 52 °F 52 °F 29.96 in Calm     100% 0.00 in 0 W/m2
02:54 51.9 °F 51.9 °F 29.96 in Calm     100% 0.00 in 0 W/m2
02:59 51.8 °F 51.8 °F 29.96 in Calm     100% 0.00 in 0 W/m2
03:04 51.7 °F 51.7 °F 29.96 in Calm     100% 0.00 in 0 W/m2
03:09 51.7 °F 51.7 °F 29.96 in Calm     100% 0.00 in 0 W/m2
03:14 51.7 °F 51.7 °F 29.96 in Calm     100% 0.00 in 0 W/m2
03:19 51.7 °F 51.7 °F 29.96 in Calm     100% 0.00 in 0 W/m2
03:24 51.7 °F 51.7 °F 29.96 in Calm     100% 0.00 in 0 W/m2
03:29 51.7 °F 51.7 °F 29.96 in Calm     100% 0.00 in 0 W/m2
03:34 51.7 °F 51.7 °F 29.95 in Calm     100% 0.00 in 0 W/m2
03:39 51.7 °F 51.7 °F 29.95 in Calm     100% 0.00 in 0 W/m2
03:44 51.6 °F 51.6 °F 29.95 in Calm     100% 0.00 in 0 W/m2
03:49 51.6 °F 51.6 °F 29.94 in Calm     100% 0.00 in 0 W/m2
03:54 51.4 °F 51.4 °F 29.94 in Calm     100% 0.00 in 0 W/m2
03:59 51.4 °F 51.4 °F 29.94 in Calm     100% 0.00 in 0 W/m2
04:04 51.4 °F 51.4 °F 29.94 in Calm     100% 0.00 in 0 W/m2
04:09 51.5 °F 51.5 °F 29.94 in Calm     100% 0.00 in 0 W/m2
04:14 51.6 °F 51.6 °F 29.94 in Calm     100% 0.00 in 0 W/m2
04:19 51.4 °F 51.4 °F 29.94 in Calm     100% 0.00 in 0 W/m2
04:24 51.3 °F 51.3 °F 29.94 in Calm     100% 0.00 in 0 W/m2
04:29 51.3 °F 51.3 °F 29.94 in Calm     100% 0.00 in 0 W/m2
04:34 51.3 °F 51.3 °F 29.93 in Calm     100% 0.00 in 0 W/m2
04:39 51.3 °F 51.3 °F 29.93 in Calm   1 mph 100% 0.00 in 0 W/m2
04:44 51.3 °F 51.3 °F 29.93 in Calm     100% 0.00 in 0 W/m2
04:49 51.1 °F 51.1 °F 29.93 in Calm     100% 0.00 in 0 W/m2
04:54 51.1 °F 51.1 °F 29.93 in Calm     100% 0.00 in 0 W/m2
04:59 51.1 °F 51.1 °F 29.93 in Calm     100% 0.00 in 0 W/m2
05:04 51.1 °F 51.1 °F 29.92 in Calm     100% 0.00 in 0 W/m2
05:09 51.1 °F 51.1 °F 29.92 in Calm     100% 0.00 in 0 W/m2
05:14 51.1 °F 51.1 °F 29.92 in Calm     100% 0.00 in 0 W/m2
05:19 51.1 °F 51.1 °F 29.91 in Calm     100% 0.00 in 0 W/m2
05:24 51.1 °F 51.1 °F 29.91 in Calm     100% 0.00 in 0 W/m2
05:29 51.1 °F 51.1 °F 29.91 in Calm     100% 0.00 in 0 W/m2
05:34 51.1 °F 51.1 °F 29.91 in Calm     100% 0.00 in 0 W/m2
05:39 51.1 °F 51.1 °F 29.91 in Calm     100% 0.00 in 0 W/m2
05:44 51.1 °F 51.1 °F 29.92 in Calm     100% 0.00 in 0 W/m2
05:49 51.1 °F 51.1 °F 29.92 in Calm     100% 0.00 in 0 W/m2
05:54 51.1 °F 51.1 °F 29.92 in Calm     100% 0.00 in 0 W/m2
05:59 51.1 °F 51.1 °F 29.92 in Calm     100% 0.00 in 0 W/m2
06:04 51.1 °F 51.1 °F 29.91 in Calm     100% 0.00 in 0 W/m2
06:09 51.3 °F 51.3 °F 29.91 in Calm     100% 0.00 in 0 W/m2
06:14 51.3 °F 51.3 °F 29.92 in Calm     100% 0.00 in 0 W/m2
06:19 51.4 °F 51.4 °F 29.92 in Calm     100% 0.00 in 0 W/m2
06:24 51.4 °F 51.4 °F 29.92 in Calm     100% 0.00 in 5 W/m2
06:29 51.6 °F 51.6 °F 29.92 in Calm     100% 0.00 in 5 W/m2
06:34 51.6 °F 51.6 °F 29.92 in Calm     100% 0.00 in 9 W/m2
06:39 51.7 °F 51.7 °F 29.92 in Calm     100% 0.00 in 14 W/m2
06:44 51.7 °F 51.7 °F 29.92 in Calm     100% 0.00 in 25 W/m2
06:49 51.7 °F 51.7 °F 29.91 in Calm     100% 0.00 in 30 W/m2
06:54 51.8 °F 51.8 °F 29.91 in Calm     100% 0.00 in 42 W/m2
06:59 51.9 °F 51.9 °F 29.91 in Calm     100% 0.00 in 53 W/m2
07:04 52.1 °F 52.1 °F 29.91 in Calm     100% 0.00 in 65 W/m2
07:09 52.4 °F 52.4 °F 29.91 in Calm     100% 0.00 in 83 W/m2
07:14 52.8 °F 52.8 °F 29.91 in Calm     100% 0.00 in 107 W/m2
07:19 53.2 °F 53.2 °F 29.91 in Calm     100% 0.00 in 106 W/m2
07:24 53.5 °F 53.5 °F 29.91 in Calm     100% 0.00 in 65 W/m2
07:29 53.8 °F 53.8 °F 29.91 in Calm     100% 0.00 in 58 W/m2
07:34 54.2 °F 54.2 °F 29.91 in Calm     100% 0.00 in 63 W/m2
07:39 54.4 °F 54.4 °F 29.91 in Calm     100% 0.00 in 63 W/m2
07:44 54.7 °F 54.7 °F 29.91 in Calm     100% 0.00 in 67 W/m2
07:49 55 °F 55 °F 29.91 in Calm     100% 0.00 in 60 W/m2
07:54 55.3 °F 55.3 °F 29.91 in Calm     100% 0.00 in 216 W/m2
07:59 55.9 °F 55.9 °F 29.91 in Calm     100% 0.00 in 257 W/m2
08:04 56.9 °F 56.9 °F 29.91 in Calm     100% 0.00 in 257 W/m2
08:09 57.7 °F 57.7 °F 29.91 in Calm     100% 0.00 in 269 W/m2
08:14 58.5 °F 58.5 °F 29.91 in Calm     100% 0.00 in 269 W/m2
08:19 59.1 °F 59.1 °F 29.90 in Calm   1 mph 100% 0.00 in 266 W/m2
08:24 59.6 °F 59.6 °F 29.90 in SSW 1.8 mph 7 mph 100% 0.00 in 290 W/m2
08:29 60 °F 60 °F 29.90 in SSW 1.5 mph 5 mph 100% 0.00 in 290 W/m2
08:34 60.3 °F 60.3 °F 29.90 in SW 0.8 mph 3 mph 100% 0.00 in 306 W/m2
08:39 60.9 °F 60.9 °F 29.90 in South 0.9 mph 5 mph 100% 0.00 in 340 W/m2
08:44 61.5 °F 61.5 °F 29.90 in SW 1.1 mph 3 mph 100% 0.00 in 329 W/m2
08:49 61.9 °F 61.7 °F 29.90 in SW 0.8 mph 5 mph 99.5% 0.00 in 141 W/m2
08:54 62.1 °F 61.6 °F 29.90 in SW 0.1 mph 2 mph 98.2% 0.00 in 310 W/m2
08:59 62.5 °F 61.7 °F 29.90 in SSW 0.1 mph 2 mph 97.1% 0.00 in 310 W/m2
09:04 63 °F 61.8 °F 29.90 in Calm     95.7% 0.00 in 204 W/m2
09:09 63.4 °F 61.8 °F 29.90 in Calm     94.3% 0.00 in 185 W/m2
09:14 63.8 °F 62 °F 29.90 in SW 0.5 mph 7 mph 93.9% 0.00 in 443 W/m2
09:19 64.4 °F 61.9 °F 29.89 in SW 0.7 mph 7 mph 91.5% 0.00 in 466 W/m2
09:24 65.2 °F 61.7 °F 29.89 in WSW 1.4 mph 8 mph 88.3% 0.00 in 479 W/m2
09:34 67 °F 61.5 °F 29.89 in WSW 2 mph 10 mph 82.4% 0.00 in 510 W/m2
09:39 67.5 °F 61.5 °F 29.89 in West 1.3 mph 6 mph 81% 0.00 in 549 W/m2
Lisbon, New Hampshire, USA
Compliments of Weather Underground - 3 mb